Time;durP1;ratioP1;P1;durP2;ratioP2;P2;SDS_P1;SDS_P2;PMS_P1;PMS_P2;Temp;Humidity;BMP_temperature;BMP_pressure;BME280_temperature;BME280_humidity;BME280_pressure;Samples;Min_cycle;Max_cycle;Signal;HPM_P1;HPM_P2
2022/01/24 00:00:38;;;;;;;6.88;6.18;;;3.10;99.90;;;;;;4983058;28;20239;-78
2022/01/24 00:03:06;;;;;;;7.55;6.85;;;3.10;99.90;;;;;;4986224;28;20227;-77
2022/01/24 00:05:33;;;;;;;5.97;5.38;;;3.00;99.90;;;;;;4982774;28;20225;-75
2022/01/24 00:08:00;;;;;;;5.65;5.15;;;3.00;99.90;;;;;;4986254;28;20229;-75
2022/01/24 00:10:30;;;;;;;6.38;5.78;;;3.00;99.90;;;;;;4992582;28;20200;-76
2022/01/24 00:15:57;;;;;;;7.10;6.43;;;2.90;99.90;;;;;;4983674;28;20307;-76
2022/01/24 00:18:31;;;;;;;7.38;6.32;;;3.00;99.90;;;;;;4964141;28;20241;-75
2022/01/24 00:26:46;;;;;;;7.22;6.53;;;2.90;99.90;;;;;;4975466;23;20364;-68
2022/01/24 00:29:14;;;;;;;6.43;5.78;;;2.90;99.90;;;;;;4943389;28;20784;-68
2022/01/24 00:31:41;;;;;;;6.75;6.15;;;2.80;99.90;;;;;;4952183;28;20206;-68
2022/01/24 00:34:08;;;;;;;6.00;5.40;;;2.80;99.90;;;;;;4950474;28;20302;-68
2022/01/24 00:36:36;;;;;;;6.65;5.97;;;2.80;99.90;;;;;;4936683;28;20234;-67
2022/01/24 00:39:03;;;;;;;6.60;5.93;;;2.80;99.90;;;;;;4934971;28;20310;-68
2022/01/24 00:41:38;;;;;;;7.20;6.50;;;2.80;99.90;;;;;;4927501;29;20801;-68
2022/01/24 00:44:29;;;;;;;8.70;7.20;;;2.80;99.90;;;;;;4932474;28;20218;-67
2022/01/24 00:46:59;;;;;;;9.05;7.13;;;2.80;99.90;;;;;;4930398;28;20226;-68
2022/01/24 00:49:46;;;;;;;7.80;7.05;;;2.80;99.90;;;;;;4938863;28;20249;-68
2022/01/24 00:54:57;;;;;;;8.77;7.88;;;2.70;99.90;;;;;;4956180;28;20217;-68
2022/01/24 00:57:26;;;;;;;8.25;6.90;;;2.70;99.90;;;;;;4946893;28;20241;-68
2022/01/24 00:59:53;;;;;;;9.50;8.15;;;2.70;99.90;;;;;;4950072;28;20236;-68
2022/01/24 01:02:20;;;;;;;8.38;7.53;;;2.60;99.90;;;;;;4949819;28;20553;-67
2022/01/24 01:05:02;;;;;;;11.85;8.30;;;2.50;99.90;;;;;;4950573;28;20214;-68
2022/01/24 01:07:37;;;;;;;9.05;8.15;;;2.50;99.90;;;;;;4945846;28;20217;-68
2022/01/24 01:18:22;;;;;;;8.20;6.95;;;2.30;99.90;;;;;;4947630;28;20229;-67
2022/01/24 01:23:45;;;;;;;8.48;7.32;;;2.30;99.90;;;;;;4962676;28;20201;-68
2022/01/24 01:26:21;;;;;;;7.50;6.80;;;2.20;99.90;;;;;;4972197;28;20238;-68
2022/01/24 01:28:56;;;;;;;8.15;7.07;;;2.30;99.90;;;;;;4970499;28;20241;-67
2022/01/24 01:31:34;;;;;;;8.07;6.97;;;2.30;99.90;;;;;;4951102;28;20621;-67
2022/01/24 01:34:09;;;;;;;7.70;7.00;;;2.30;99.90;;;;;;4948023;28;20221;-68
2022/01/24 01:39:45;;;;;;;8.75;7.15;;;2.30;99.90;;;;;;4942648;28;20373;-68
2022/01/24 01:53:44;;;;;;;8.80;8.00;;;2.20;99.90;;;;;;4948361;28;20244;-67
2022/01/24 01:56:11;;;;;;;8.52;7.72;;;2.20;99.90;;;;;;4950011;28;20690;-67
2022/01/24 01:58:38;;;;;;;8.57;7.40;;;2.10;99.90;;;;;;4952561;28;20226;-68
2022/01/24 02:01:07;;;;;;;9.07;8.18;;;2.20;99.90;;;;;;4948675;28;20280;-68
2022/01/24 02:03:34;;;;;;;9.18;7.40;;;2.20;99.90;;;;;;4953988;28;20234;-67
2022/01/24 02:06:01;;;;;;;9.00;7.45;;;2.20;99.90;;;;;;4948215;28;20574;-67
2022/01/24 02:08:31;;;;;;;9.13;8.02;;;2.20;99.90;;;;;;4953180;28;20194;-67
2022/01/24 02:10:58;;;;;;;9.00;7.72;;;2.20;99.90;;;;;;4944914;28;20678;-68
2022/01/24 02:13:26;;;;;;;8.95;7.65;;;2.10;99.90;;;;;;4951288;28;20198;-67
2022/01/24 02:16:03;;;;;;;8.93;7.93;;;2.10;99.90;;;;;;4946365;28;20807;-67
2022/01/24 02:18:37;;;;;;;7.80;7.10;;;2.10;99.90;;;;;;4952075;28;20226;-67
2022/01/24 02:21:24;;;;;;;8.40;7.57;;;2.10;99.90;;;;;;4946848;28;20318;-67
2022/01/24 02:23:57;;;;;;;9.38;8.07;;;2.10;99.90;;;;;;4949126;28;20651;-67
2022/01/24 02:26:24;;;;;;;8.30;7.35;;;2.00;99.90;;;;;;4946772;28;20240;-68
2022/01/24 02:29:03;;;;;;;7.68;6.97;;;1.90;99.90;;;;;;4948490;28;20617;-67
2022/01/24 02:31:43;;;;;;;7.78;7.10;;;1.90;99.90;;;;;;4947957;28;20300;-67
2022/01/24 02:34:37;;;;;;;7.82;6.43;;;1.90;99.90;;;;;;4949150;28;20257;-68
2022/01/24 02:37:07;;;;;;;7.20;5.75;;;1.80;99.90;;;;;;4934369;28;20642;-67
2022/01/24 02:39:49;;;;;;;7.65;6.95;;;1.90;99.90;;;;;;4950510;28;20233;-68
2022/01/24 02:53:33;;;;;;;8.85;7.93;;;1.80;99.90;;;;;;4914881;29;20206;-68
2022/01/24 02:56:03;;;;;;;9.13;8.23;;;1.90;99.90;;;;;;4944078;28;20285;-68
2022/01/24 02:58:30;;;;;;;9.82;8.82;;;1.90;99.90;;;;;;4954307;28;20713;-68
2022/01/24 03:00:58;;;;;;;8.55;7.75;;;1.90;99.90;;;;;;4957137;28;20225;-67
2022/01/24 03:03:25;;;;;;;9.43;8.52;;;1.90;99.90;;;;;;4953411;28;20665;-67
2022/01/24 03:05:52;;;;;;;7.72;7.05;;;1.90;99.90;;;;;;4957299;28;21185;-67
2022/01/24 03:08:21;;;;;;;7.95;7.15;;;1.90;99.90;;;;;;4951340;28;20195;-67
2022/01/24 03:10:48;;;;;;;8.10;7.30;;;1.90;99.90;;;;;;4952466;28;20779;-67
2022/01/24 03:13:32;;;;;;;8.43;7.03;;;1.90;99.90;;;;;;4953578;28;20213;-68
2022/01/24 03:16:01;;;;;;;8.95;8.05;;;1.90;99.90;;;;;;4955503;28;20225;-68
2022/01/24 03:18:29;;;;;;;9.30;8.13;;;1.90;99.90;;;;;;4955707;28;20229;-68
2022/01/24 03:20:56;;;;;;;8.68;7.78;;;1.90;99.90;;;;;;4960861;28;20222;-67
2022/01/24 03:23:25;;;;;;;8.48;7.68;;;1.90;99.90;;;;;;4955813;28;20265;-68
2022/01/24 03:25:52;;;;;;;8.70;7.82;;;1.90;99.90;;;;;;4957192;28;20256;-67
2022/01/24 03:28:21;;;;;;;8.05;7.25;;;1.90;99.90;;;;;;4955496;28;20205;-67
2022/01/24 03:30:48;;;;;;;7.72;7.03;;;1.80;99.90;;;;;;4954400;28;20284;-67
2022/01/24 03:33:15;;;;;;;7.38;6.68;;;1.80;99.90;;;;;;4953979;28;20689;-68
2022/01/24 03:35:43;;;;;;;7.80;6.97;;;1.80;99.90;;;;;;4955501;28;20245;-67
2022/01/24 03:38:12;;;;;;;6.88;6.28;;;1.80;99.90;;;;;;4958014;28;20231;-68
2022/01/24 03:40:39;;;;;;;6.93;6.32;;;1.80;99.90;;;;;;4955063;28;20220;-68
2022/01/24 03:43:06;;;;;;;7.40;6.80;;;1.80;99.90;;;;;;4959011;28;20198;-67
2022/01/24 03:45:44;;;;;;;7.05;6.35;;;1.70;99.90;;;;;;4953795;28;20611;-68
2022/01/24 03:48:25;;;;;;;7.75;7.05;;;1.70;99.90;;;;;;4953438;28;20269;-67
2022/01/24 03:50:52;;;;;;;7.68;6.60;;;1.70;99.90;;;;;;4949201;28;20222;-67
2022/01/24 03:53:19;;;;;;;7.85;7.15;;;1.70;99.90;;;;;;4951069;28;20199;-68
2022/01/24 03:55:46;;;;;;;7.50;6.75;;;1.70;99.90;;;;;;4951231;28;20285;-67
2022/01/24 03:58:13;;;;;;;8.18;7.30;;;1.70;99.90;;;;;;4956543;28;20792;-67
2022/01/24 04:00:42;;;;;;;7.88;6.50;;;1.70;99.90;;;;;;4955272;28;20230;-68
2022/01/24 04:03:10;;;;;;;7.05;6.35;;;1.80;99.90;;;;;;4951998;28;20198;-68
2022/01/24 04:05:37;;;;;;;6.57;6.07;;;1.80;99.90;;;;;;4950962;28;20632;-68
2022/01/24 04:08:05;;;;;;;6.53;5.82;;;1.80;99.90;;;;;;4952955;28;20241;-67
2022/01/24 04:10:40;;;;;;;6.30;5.80;;;1.80;99.90;;;;;;4955169;28;20226;-68
2022/01/24 04:13:21;;;;;;;6.70;5.95;;;1.80;99.90;;;;;;4951929;28;20716;-67
2022/01/24 04:16:10;;;;;;;7.07;6.38;;;1.80;99.90;;;;;;4949003;28;20309;-67
2022/01/24 04:18:47;;;;;;;5.65;5.15;;;1.80;99.90;;;;;;4952601;28;20510;-67
2022/01/24 04:21:26;;;;;;;6.53;5.93;;;1.80;99.90;;;;;;4954575;28;20218;-67
2022/01/24 04:24:00;;;;;;;5.70;5.20;;;1.80;99.90;;;;;;4952449;28;20294;-68
2022/01/24 04:26:28;;;;;;;5.75;5.25;;;1.80;99.90;;;;;;4949661;28;20230;-67
2022/01/24 04:28:55;;;;;;;6.03;5.53;;;1.70;99.90;;;;;;4952296;28;20202;-67
2022/01/24 04:31:24;;;;;;;6.20;5.60;;;1.70;99.90;;;;;;4953475;28;20222;-67
2022/01/24 04:33:51;;;;;;;5.88;5.38;;;1.60;99.90;;;;;;4953425;28;20755;-67
2022/01/24 04:36:20;;;;;;;5.53;5.13;;;1.60;99.90;;;;;;4947493;28;20814;-67
2022/01/24 04:38:47;;;;;;;6.43;5.82;;;1.60;99.90;;;;;;4953377;28;20225;-68
2022/01/24 04:41:19;;;;;;;6.55;5.95;;;1.60;99.90;;;;;;4953328;28;20225;-67
2022/01/24 04:46:48;;;;;;;6.45;5.85;;;1.60;99.90;;;;;;4953537;28;20304;-67
2022/01/24 04:52:23;;;;;;;6.47;5.40;;;1.60;99.90;;;;;;4952082;28;20228;-67
2022/01/24 04:54:51;;;;;;;5.57;5.05;;;1.50;99.90;;;;;;4951435;28;20225;-67
2022/01/24 04:57:20;;;;;;;5.70;5.20;;;1.50;99.90;;;;;;4952793;28;20226;-67
2022/01/24 04:59:50;;;;;;;6.00;5.40;;;1.50;99.90;;;;;;4948254;28;20222;-67
2022/01/24 05:02:19;;;;;;;4.78;4.28;;;1.50;99.90;;;;;;4950533;28;20218;-67
2022/01/24 05:04:47;;;;;;;5.30;4.70;;;1.50;99.90;;;;;;4950179;28;20205;-67
2022/01/24 05:07:15;;;;;;;5.95;5.43;;;1.50;99.90;;;;;;4950499;28;20228;-67
2022/01/24 05:09:47;;;;;;;5.82;5.32;;;1.50;99.90;;;;;;4953068;28;20213;-67
2022/01/24 05:12:20;;;;;;;5.97;5.43;;;1.50;99.90;;;;;;4952263;28;20202;-68
2022/01/24 05:25:45;;;;;;;5.78;5.30;;;1.40;99.90;;;;;;4947121;28;20598;-67
2022/01/24 05:28:12;;;;;;;6.18;5.60;;;1.30;99.90;;;;;;4953260;28;20210;-67
2022/01/24 05:30:39;;;;;;;5.13;4.72;;;1.30;99.90;;;;;;4952479;28;20222;-67
2022/01/24 05:33:08;;;;;;;5.10;4.70;;;1.30;99.90;;;;;;4952792;28;20199;-67
2022/01/24 05:35:35;;;;;;;5.40;5.00;;;1.20;99.90;;;;;;4948821;28;20221;-67
2022/01/24 05:38:02;;;;;;;5.72;5.22;;;1.20;99.90;;;;;;4948778;28;20202;-67
2022/01/24 05:40:29;;;;;;;5.95;5.32;;;1.20;99.90;;;;;;4949643;28;20221;-68
2022/01/24 05:42:56;;;;;;;4.90;4.50;;;1.20;99.90;;;;;;4952145;28;20209;-67
2022/01/24 05:45:23;;;;;;;4.88;4.47;;;1.20;99.90;;;;;;4951136;28;20280;-68
2022/01/24 05:47:50;;;;;;;5.10;4.70;;;1.10;99.90;;;;;;4951030;28;20203;-68
2022/01/24 05:50:19;;;;;;;5.15;4.82;;;1.10;99.90;;;;;;4949984;28;20728;-67
2022/01/24 05:52:46;;;;;;;5.25;4.85;;;1.10;99.90;;;;;;4954407;28;20198;-68
2022/01/24 05:55:13;;;;;;;4.95;4.65;;;1.10;99.90;;;;;;4948751;28;20222;-67
2022/01/24 05:57:40;;;;;;;5.00;4.60;;;1.10;99.90;;;;;;4951903;28;20730;-67
2022/01/24 06:00:10;;;;;;;5.22;4.82;;;1.00;99.90;;;;;;4949340;28;20285;-67
2022/01/24 06:02:37;;;;;;;5.50;5.00;;;1.00;99.90;;;;;;4948602;28;20206;-68
2022/01/24 06:05:04;;;;;;;5.53;4.88;;;1.00;99.90;;;;;;4951246;28;20202;-68
2022/01/24 06:07:33;;;;;;;5.20;4.80;;;1.00;99.90;;;;;;4949690;28;20606;-67
2022/01/24 06:10:00;;;;;;;5.75;5.25;;;1.00;99.90;;;;;;4953614;28;20194;-68
2022/01/24 06:12:27;;;;;;;4.88;4.35;;;1.00;99.90;;;;;;4951716;28;20417;-68
2022/01/24 06:14:54;;;;;;;4.20;3.90;;;0.90;99.90;;;;;;4946371;28;20662;-67
2022/01/24 06:17:21;;;;;;;5.50;5.10;;;0.90;99.90;;;;;;4947752;28;20218;-68
2022/01/24 06:19:48;;;;;;;5.22;4.82;;;0.90;99.90;;;;;;4957287;28;20277;-68
2022/01/24 06:22:15;;;;;;;5.22;4.82;;;0.90;99.90;;;;;;4952828;28;20229;-67
2022/01/24 06:24:44;;;;;;;4.53;4.20;;;0.80;99.90;;;;;;4953452;28;20681;-67
2022/01/24 06:27:11;;;;;;;5.20;4.80;;;0.90;99.90;;;;;;5007860;23;20235;-76
2022/01/24 06:29:38;;;;;;;5.95;5.18;;;0.90;99.90;;;;;;5004308;28;20615;-74
2022/01/24 06:32:06;;;;;;;5.07;4.68;;;0.90;99.90;;;;;;4998474;28;20216;-75
2022/01/24 06:34:33;;;;;;;4.80;4.40;;;0.90;99.90;;;;;;5002789;28;20211;-76
2022/01/24 06:37:00;;;;;;;5.20;4.80;;;0.90;99.90;;;;;;4997438;28;20221;-75
2022/01/24 06:39:27;;;;;;;5.32;4.90;;;0.90;99.90;;;;;;4996355;28;20224;-75
2022/01/24 06:42:08;;;;;;;5.32;4.82;;;0.90;99.90;;;;;;5000260;28;20275;-76
2022/01/24 06:44:35;;;;;;;5.07;4.68;;;0.90;99.90;;;;;;4995141;28;20204;-75
2022/01/24 06:47:03;;;;;;;5.50;4.90;;;0.90;99.90;;;;;;4993255;28;20232;-75
2022/01/24 06:49:31;;;;;;;5.85;4.70;;;0.90;99.90;;;;;;4988202;28;20212;-75
2022/01/24 06:51:58;;;;;;;6.18;5.72;;;0.90;99.90;;;;;;4994958;28;20212;-76
2022/01/24 06:54:25;;;;;;;5.15;4.68;;;0.90;99.90;;;;;;4987175;28;20209;-75
2022/01/24 06:56:52;;;;;;;5.30;4.97;;;0.90;99.90;;;;;;4987464;28;20282;-76
2022/01/24 06:59:20;;;;;;;5.20;4.80;;;0.90;99.90;;;;;;4984881;28;20234;-75
2022/01/24 07:01:47;;;;;;;4.63;4.20;;;0.90;99.90;;;;;;4991646;28;20447;-76
2022/01/24 07:04:14;;;;;;;5.50;5.00;;;0.90;99.90;;;;;;4990586;28;20193;-75
2022/01/24 07:06:41;;;;;;;4.72;4.25;;;0.90;99.90;;;;;;4989659;28;20235;-75
2022/01/24 07:09:08;;;;;;;5.22;4.82;;;0.90;99.90;;;;;;4987822;28;20533;-76
2022/01/24 07:11:35;;;;;;;6.25;5.60;;;0.90;99.90;;;;;;4994251;28;20221;-75
2022/01/24 07:14:06;;;;;;;5.57;5.07;;;0.90;99.90;;;;;;5001470;28;20196;-79
2022/01/24 07:16:50;;;;;;;5.10;4.63;;;0.90;99.90;;;;;;4999363;28;20597;-76
2022/01/24 07:19:18;;;;;;;6.53;5.10;;;0.90;99.90;;;;;;4992592;28;20228;-76
2022/01/24 07:21:45;;;;;;;5.85;5.35;;;1.00;99.90;;;;;;4989579;28;20254;-75
2022/01/24 07:24:12;;;;;;;5.35;4.93;;;1.00;99.90;;;;;;4987037;28;20211;-77
2022/01/24 07:26:39;;;;;;;6.05;5.45;;;1.00;99.90;;;;;;4987914;28;20232;-76
2022/01/24 07:29:06;;;;;;;6.05;5.45;;;1.00;99.90;;;;;;4984174;28;20696;-75
2022/01/24 07:31:34;;;;;;;5.95;5.45;;;0.90;99.90;;;;;;4985199;28;20253;-76
2022/01/24 07:34:01;;;;;;;6.55;5.40;;;0.90;99.90;;;;;;4989143;28;20197;-76
2022/01/24 07:36:28;;;;;;;5.82;5.35;;;0.90;99.90;;;;;;4991992;28;20279;-76
2022/01/24 07:38:56;;;;;;;5.43;5.00;;;1.00;99.90;;;;;;4998756;28;20201;-76
2022/01/24 07:41:26;;;;;;;4.68;4.28;;;1.00;99.90;;;;;;4991675;28;20231;-75
2022/01/24 07:43:53;;;;;;;5.03;4.50;;;1.00;99.90;;;;;;4992293;28;20280;-75
2022/01/24 07:46:20;;;;;;;5.47;5.00;;;1.00;99.90;;;;;;4991563;28;20279;-76
2022/01/24 07:48:49;;;;;;;5.68;5.18;;;1.00;99.90;;;;;;4982547;28;20202;-75
2022/01/24 07:51:16;;;;;;;5.97;5.38;;;1.00;99.90;;;;;;4996462;28;20274;-76
2022/01/24 07:53:44;;;;;;;5.53;5.03;;;0.90;99.90;;;;;;4986244;28;20830;-75
2022/01/24 07:56:12;;;;;;;5.60;4.93;;;0.90;99.90;;;;;;4988587;28;20216;-76
2022/01/24 07:58:42;;;;;;;5.28;4.85;;;1.00;99.90;;;;;;4984687;28;20684;-76
2022/01/24 08:01:09;;;;;;;6.10;5.00;;;1.00;99.90;;;;;;4991762;28;20221;-77
2022/01/24 08:03:36;;;;;;;6.47;5.88;;;1.00;99.90;;;;;;5019944;28;20204;-77
2022/01/24 08:06:04;;;;;;;6.05;5.45;;;1.00;99.90;;;;;;5003748;28;20212;-77
2022/01/24 08:08:31;;;;;;;5.53;4.97;;;1.00;99.90;;;;;;5009527;28;20229;-75
2022/01/24 08:10:58;;;;;;;5.35;4.95;;;1.10;99.90;;;;;;4996971;28;20639;-75
2022/01/24 08:13:25;;;;;;;5.78;5.32;;;1.10;99.90;;;;;;4991640;28;20193;-77
2022/01/24 08:15:53;;;;;;;4.53;4.22;;;1.20;99.90;;;;;;4995153;28;20220;-75
2022/01/24 08:18:20;;;;;;;5.93;5.43;;;1.80;99.90;;;;;;4996275;28;20225;-76
2022/01/24 08:20:47;;;;;;;5.32;4.82;;;2.90;99.90;;;;;;4995994;28;20228;-77
2022/01/24 08:23:17;;;;;;;6.25;5.75;;;4.20;99.90;;;;;;4991271;28;20209;-76
2022/01/24 08:25:44;;;;;;;5.75;5.25;;;5.10;99.90;;;;;;4989426;28;20224;-77
2022/01/24 08:28:12;;;;;;;5.72;5.22;;;5.80;99.90;;;;;;5000865;28;20232;-75
2022/01/24 08:30:39;;;;;;;5.72;5.13;;;6.50;99.90;;;;;;4992871;28;20225;-76
2022/01/24 08:33:07;;;;;;;7.00;6.30;;;7.10;99.90;;;;;;4989997;28;20205;-75
2022/01/24 08:35:34;;;;;;;5.72;5.00;;;7.60;99.90;;;;;;4991457;28;20688;-74
2022/01/24 08:38:01;;;;;;;6.85;5.65;;;7.90;99.90;;;;;;4999080;28;20224;-78
2022/01/24 08:40:31;;;;;;;6.30;5.70;;;8.20;99.90;;;;;;4999863;28;20220;-76
2022/01/24 08:43:02;;;;;;;5.93;5.32;;;8.80;99.90;;;;;;4983545;28;20654;-76
2022/01/24 08:48:26;;;;;;;7.07;6.47;;;9.60;99.90;;;;;;4964017;28;20266;-76
2022/01/24 08:50:55;;;;;;;5.95;5.35;;;9.80;99.90;;;;;;4995183;28;20225;-76
2022/01/24 08:53:23;;;;;;;7.63;6.82;;;10.20;99.90;;;;;;4991688;28;20283;-75
2022/01/24 08:55:51;;;;;;;7.32;6.63;;;10.50;99.90;;;;;;4995171;28;20529;-77
2022/01/24 08:58:19;;;;;;;8.00;6.38;;;10.70;99.90;;;;;;4994002;28;20225;-76
2022/01/24 09:00:47;;;;;;;10.35;7.18;;;10.80;99.90;;;;;;5013586;28;20724;-78
2022/01/24 09:03:14;;;;;;;9.05;8.13;;;11.10;99.90;;;;;;4988685;28;20264;-76
2022/01/24 09:05:42;;;;;;;9.60;7.65;;;11.20;99.90;;;;;;4993027;28;20707;-76
2022/01/24 09:08:10;;;;;;;10.77;8.32;;;11.20;99.90;;;;;;4995762;28;20213;-76
2022/01/24 09:10:40;;;;;;;9.80;8.80;;;11.20;99.90;;;;;;4995210;28;20220;-76
2022/01/24 09:13:09;;;;;;;9.13;7.55;;;11.30;99.90;;;;;;4999441;28;20196;-75
2022/01/24 09:15:36;;;;;;;8.63;7.70;;;11.40;99.90;;;;;;4990108;28;21009;-77
2022/01/24 09:18:04;;;;;;;9.75;8.60;;;11.60;99.90;;;;;;4985677;28;20267;-77
2022/01/24 09:20:38;;;;;;;9.00;7.38;;;11.80;99.90;;;;;;4996272;28;20220;-76
2022/01/24 09:23:05;;;;;;;8.48;7.35;;;11.90;99.90;;;;;;4998503;28;20200;-75
2022/01/24 09:25:33;;;;;;;8.35;7.55;;;11.80;99.90;;;;;;4988710;28;20207;-75
2022/01/24 09:28:00;;;;;;;8.32;7.53;;;12.00;99.90;;;;;;4994543;28;20595;-76
2022/01/24 09:30:28;;;;;;;9.02;7.45;;;12.70;99.30;;;;;;4995116;28;20197;-76
2022/01/24 09:32:55;;;;;;;8.93;8.02;;;13.70;97.20;;;;;;4986864;28;20205;-75
2022/01/24 09:35:23;;;;;;;8.20;7.00;;;14.90;95.20;;;;;;4989351;28;20213;-76
2022/01/24 09:37:50;;;;;;;8.23;7.43;;;16.60;92.50;;;;;;4992954;28;20220;-74
2022/01/24 09:40:19;;;;;;;8.38;7.47;;;17.90;90.00;;;;;;4986343;28;20460;-75
2022/01/24 09:42:47;;;;;;;7.70;6.90;;;19.40;81.60;;;;;;4987104;28;20221;-76
2022/01/24 09:45:16;;;;;;;11.85;7.85;;;20.30;76.50;;;;;;4990746;28;20202;-76
2022/01/24 09:47:45;;;;;;;10.25;8.35;;;20.70;75.20;;;;;;4987896;28;20228;-76
2022/01/24 09:50:14;;;;;;;9.85;8.18;;;20.80;73.90;;;;;;4987576;28;20197;-75
2022/01/24 09:52:44;;;;;;;8.52;7.70;;;20.70;72.70;;;;;;4982845;28;20223;-77
2022/01/24 09:55:11;;;;;;;8.57;7.70;;;20.20;72.50;;;;;;5011736;28;20542;-75
2022/01/24 09:57:41;;;;;;;9.55;8.18;;;19.40;74.20;;;;;;4989061;28;20225;-77
2022/01/24 10:00:11;;;;;;;10.60;9.15;;;18.20;77.00;;;;;;4988745;28;20223;-75
2022/01/24 10:02:38;;;;;;;11.88;9.98;;;16.90;81.10;;;;;;4992857;28;20227;-76
2022/01/24 10:05:16;;;;;;;11.10;9.15;;;15.70;84.40;;;;;;4991602;28;20201;-75
2022/01/24 10:07:51;;;;;;;10.98;9.45;;;14.80;87.50;;;;;;4993381;28;20222;-76
2022/01/24 10:10:31;;;;;;;10.15;9.07;;;14.20;90.10;;;;;;4987990;28;20202;-74
2022/01/24 10:16:29;;;;;;;9.60;8.60;;;13.90;91.30;;;;;;4984171;28;20730;-76
2022/01/24 10:19:11;;;;;;;12.38;8.30;;;13.80;91.20;;;;;;4984856;28;20207;-75
2022/01/24 10:21:44;;;;;;;8.95;7.97;;;13.70;91.40;;;;;;4982944;28;20233;-77
2022/01/24 10:24:13;;;;;;;10.52;8.27;;;13.70;91.40;;;;;;4987880;28;20604;-76
2022/01/24 10:26:41;;;;;;;9.02;7.85;;;13.50;91.60;;;;;;4985810;28;20433;-76
2022/01/24 10:29:13;;;;;;;9.30;7.95;;;13.00;92.10;;;;;;4988558;28;20658;-75
2022/01/24 10:31:49;;;;;;;8.38;7.45;;;13.00;92.20;;;;;;4995849;28;20882;-75
2022/01/24 10:34:23;;;;;;;12.40;8.13;;;12.60;92.60;;;;;;4997416;28;20210;-76
2022/01/24 10:36:54;;;;;;;9.15;7.80;;;12.50;92.60;;;;;;5005012;28;20220;-76
2022/01/24 10:39:30;;;;;;;10.43;8.90;;;12.30;93.10;;;;;;5007735;28;20232;-75
2022/01/24 10:45:14;;;;;;;9.52;7.70;;;12.40;92.80;;;;;;4997353;28;20196;-75
2022/01/24 10:47:46;;;;;;;9.38;7.47;;;12.10;92.40;;;;;;5005259;28;20221;-76
2022/01/24 10:50:21;;;;;;;9.65;7.55;;;12.10;93.10;;;;;;4985982;28;20192;-75
2022/01/24 10:52:50;;;;;;;10.05;8.68;;;12.00;92.70;;;;;;4991561;28;20212;-74
2022/01/24 10:55:20;;;;;;;8.65;7.20;;;12.30;93.20;;;;;;4985087;28;20263;-75
2022/01/24 10:57:48;;;;;;;10.25;7.65;;;12.60;93.10;;;;;;4990928;28;20224;-73
2022/01/24 11:00:18;;;;;;;9.02;8.13;;;12.60;92.80;;;;;;4989997;28;20753;-76
2022/01/24 11:02:49;;;;;;;9.77;8.73;;;12.60;92.70;;;;;;4988663;28;20239;-74
2022/01/24 11:05:19;;;;;;;8.80;7.90;;;12.50;92.80;;;;;;4993473;28;20200;-76
2022/01/24 11:07:52;;;;;;;9.77;8.57;;;12.80;92.60;;;;;;4992459;28;20311;-74
2022/01/24 11:10:20;;;;;;;9.98;8.88;;;12.70;91.90;;;;;;4991374;28;20420;-76
2022/01/24 11:12:47;;;;;;;8.93;8.02;;;12.80;92.20;;;;;;4988607;28;20212;-76
2022/01/24 11:15:14;;;;;;;8.45;7.75;;;12.80;92.20;;;;;;4992881;28;20192;-75
2022/01/24 11:17:44;;;;;;;8.98;8.07;;;12.70;91.70;;;;;;4992721;28;20232;-76
2022/01/24 11:20:15;;;;;;;8.98;8.07;;;12.50;92.00;;;;;;5001705;28;20200;-76
2022/01/24 11:22:45;;;;;;;8.75;7.95;;;12.40;92.10;;;;;;4996480;28;20246;-74
2022/01/24 11:25:15;;;;;;;8.75;7.85;;;12.00;92.30;;;;;;4994327;28;20204;-76
2022/01/24 11:27:44;;;;;;;9.05;8.25;;;11.90;92.70;;;;;;4994541;28;20248;-75
2022/01/24 11:30:14;;;;;;;8.60;7.68;;;12.10;92.50;;;;;;4992695;28;20212;-75
2022/01/24 11:32:48;;;;;;;8.45;7.65;;;12.30;92.50;;;;;;4987105;28;20217;-76
2022/01/24 11:35:30;;;;;;;8.95;6.70;;;12.70;91.90;;;;;;4993326;28;20725;-76
2022/01/24 11:37:58;;;;;;;7.75;6.95;;;12.60;91.60;;;;;;4992153;28;20579;-76
2022/01/24 11:40:28;;;;;;;7.68;6.90;;;12.40;91.70;;;;;;5006552;28;20215;-76
2022/01/24 11:42:55;;;;;;;8.77;7.90;;;12.40;92.10;;;;;;4995516;28;20227;-75
2022/01/24 11:45:56;;;;;;;8.65;7.28;;;12.60;92.00;;;;;;4991654;28;20454;-75
2022/01/24 11:48:23;;;;;;;9.05;7.25;;;12.80;90.80;;;;;;4994351;28;20231;-75
2022/01/24 11:51:00;;;;;;;8.43;7.55;;;12.60;91.30;;;;;;4988706;28;20622;-73
2022/01/24 11:53:29;;;;;;;9.02;6.93;;;12.40;91.50;;;;;;4989460;28;20498;-74
2022/01/24 11:56:16;;;;;;;8.23;6.60;;;12.30;91.50;;;;;;4996425;28;20192;-74
2022/01/24 11:58:43;;;;;;;8.63;7.72;;;12.00;91.80;;;;;;4993489;28;20259;-75
2022/01/24 12:01:18;;;;;;;8.23;6.68;;;11.90;91.70;;;;;;4985492;28;20654;-75
2022/01/24 12:03:51;;;;;;;8.32;7.50;;;11.90;92.20;;;;;;4997966;28;20212;-75
2022/01/24 12:06:20;;;;;;;8.68;7.88;;;12.20;92.10;;;;;;4996390;28;20204;-75
2022/01/24 12:08:48;;;;;;;8.10;7.30;;;12.00;91.90;;;;;;4994153;28;20236;-75
2022/01/24 12:11:21;;;;;;;8.80;7.90;;;12.00;92.20;;;;;;4992190;28;20206;-74
2022/01/24 12:13:53;;;;;;;8.63;7.82;;;11.70;92.40;;;;;;4994553;28;20569;-74
2022/01/24 12:16:20;;;;;;;8.05;6.85;;;11.50;92.30;;;;;;4993726;28;20831;-74
2022/01/24 12:19:04;;;;;;;8.90;7.70;;;11.40;92.30;;;;;;4985682;28;20216;-74
2022/01/24 12:21:34;;;;;;;7.70;6.88;;;11.00;92.30;;;;;;4993459;28;20227;-75
2022/01/24 12:24:04;;;;;;;7.43;6.65;;;10.90;92.70;;;;;;4986302;28;20644;-76
2022/01/24 12:26:35;;;;;;;9.45;8.52;;;10.90;92.90;;;;;;4990223;28;20463;-75
2022/01/24 12:31:33;;;;;;;10.68;8.98;;;10.20;93.80;;;;;;4965782;28;20280;-77
2022/01/24 12:34:10;;;;;;;9.23;8.32;;;10.10;94.70;;;;;;4970002;28;20202;-76
2022/01/24 12:37:02;;;;;;;14.32;9.85;;;10.40;95.00;;;;;;4967056;28;20794;-74
2022/01/24 12:39:34;;;;;;;11.02;8.63;;;10.50;94.30;;;;;;4969423;28;20217;-74
2022/01/24 12:42:10;;;;;;;9.48;8.57;;;10.30;94.40;;;;;;4968341;28;20228;-73
2022/01/24 12:47:27;;;;;;;8.82;7.93;;;10.20;94.30;;;;;;4963049;28;20646;-75
2022/01/24 12:49:56;;;;;;;8.60;7.75;;;10.50;94.50;;;;;;4964622;28;20204;-75
2022/01/24 12:52:25;;;;;;;9.93;8.35;;;10.90;94.00;;;;;;4966385;28;20229;-73
2022/01/24 12:54:55;;;;;;;8.70;7.90;;;11.20;93.40;;;;;;4964008;28;20198;-75
2022/01/24 12:57:29;;;;;;;7.50;6.80;;;11.40;92.80;;;;;;4964438;28;20360;-75
2022/01/24 13:00:01;;;;;;;7.40;6.53;;;11.40;92.10;;;;;;4965071;28;20209;-77
2022/01/24 13:02:29;;;;;;;8.55;7.03;;;11.40;92.10;;;;;;4963011;28;20247;-76
2022/01/24 13:05:07;;;;;;;7.57;6.47;;;11.20;91.90;;;;;;4963617;28;20204;-74
2022/01/24 13:07:34;;;;;;;8.40;6.15;;;11.00;91.90;;;;;;4960703;28;20235;-75
2022/01/24 13:10:10;;;;;;;6.07;5.47;;;10.90;92.10;;;;;;4961060;28;20198;-76
2022/01/24 13:12:39;;;;;;;7.28;6.53;;;11.10;91.80;;;;;;4970694;28;20221;-76
2022/01/24 13:15:20;;;;;;;6.35;5.75;;;11.20;91.80;;;;;;4971321;28;20197;-73
2022/01/24 13:21:06;;;;;;;7.25;6.00;;;11.00;91.70;;;;;;4966030;28;20209;-74
2022/01/24 13:23:33;;;;;;;7.30;6.53;;;10.80;91.70;;;;;;4946967;28;20496;-77
2022/01/24 13:26:01;;;;;;;7.85;6.13;;;10.80;92.30;;;;;;4945292;28;20289;-74
2022/01/24 13:28:29;;;;;;;9.43;6.78;;;10.70;92.70;;;;;;4965232;28;20226;-74
2022/01/24 13:31:01;;;;;;;6.68;6.03;;;10.60;92.70;;;;;;4964148;28;20206;-73
2022/01/24 13:33:30;;;;;;;7.63;6.45;;;10.50;92.20;;;;;;4964236;28;20274;-76
2022/01/24 13:35:59;;;;;;;7.60;5.45;;;10.50;92.10;;;;;;4963615;28;20747;-75
2022/01/24 13:38:28;;;;;;;5.38;4.90;;;10.70;91.90;;;;;;4962792;28;20221;-72
2022/01/24 13:40:58;;;;;;;6.57;5.97;;;10.90;91.50;;;;;;4962934;28;20204;-76
2022/01/24 13:43:36;;;;;;;5.85;5.25;;;11.00;91.50;;;;;;4965199;28;20657;-76
2022/01/24 13:46:06;;;;;;;5.97;4.80;;;11.20;91.30;;;;;;4964304;28;20297;-75
2022/01/24 13:48:40;;;;;;;9.02;5.18;;;11.40;91.30;;;;;;4961632;28;20229;-75
2022/01/24 13:51:08;;;;;;;5.80;5.30;;;11.50;91.00;;;;;;4964179;28;20284;-78
2022/01/24 13:53:39;;;;;;;7.03;4.57;;;11.50;91.20;;;;;;4963438;28;20233;-76
2022/01/24 13:56:28;;;;;;;5.22;4.72;;;11.60;91.20;;;;;;4961838;28;20613;-76
2022/01/24 13:59:09;;;;;;;5.25;4.75;;;11.70;90.80;;;;;;4962819;28;20247;-76
2022/01/24 14:01:39;;;;;;;6.10;5.50;;;11.90;90.80;;;;;;4961347;28;20224;-77
2022/01/24 14:04:08;;;;;;;5.72;5.13;;;11.90;90.80;;;;;;4963658;28;20197;-78
2022/01/24 14:06:36;;;;;;;7.03;6.32;;;11.80;91.00;;;;;;4966074;28;20213;-77
2022/01/24 14:09:09;;;;;;;5.43;4.93;;;11.70;91.30;;;;;;4966853;28;20719;-77
2022/01/24 14:11:45;;;;;;;7.13;5.90;;;11.60;91.40;;;;;;4968136;28;20205;-77
2022/01/24 14:14:16;;;;;;;7.32;5.70;;;11.60;91.50;;;;;;4967019;28;20229;-76
2022/01/24 14:16:51;;;;;;;6.32;5.72;;;11.50;91.40;;;;;;4962597;28;20731;-77
2022/01/24 14:19:18;;;;;;;7.88;5.90;;;11.40;91.40;;;;;;4965016;28;20228;-76
2022/01/24 14:22:04;;;;;;;5.07;4.57;;;11.10;91.80;;;;;;4966040;28;20218;-75
2022/01/24 14:24:49;;;;;;;6.38;5.55;;;10.70;92.30;;;;;;4966402;28;20201;-76
2022/01/24 14:27:40;;;;;;;5.90;5.05;;;10.40;92.60;;;;;;4966363;28;20228;-78
2022/01/24 14:30:15;;;;;;;7.50;5.88;;;10.00;92.90;;;;;;4962909;28;20256;-75
2022/01/24 14:32:58;;;;;;;8.75;5.15;;;9.80;93.40;;;;;;4969305;28;20228;-76